sensor_id;sensor_type;location;lat;lon;timestamp;pressure;altitude;pressure_sealevel;temperature;humidity
72558;BME280;60583;50.094;8.748;2024-01-15T00:00:36;99251.03;;;-2.15;91.66
72558;BME280;60583;50.094;8.748;2024-01-15T00:03:20;99221.34;;;-2.32;91.53
72558;BME280;60583;50.094;8.748;2024-01-15T00:06:04;99247.16;;;-2.11;92.12
72558;BME280;60583;50.094;8.748;2024-01-15T00:08:47;99210.06;;;-2.32;91.95
72558;BME280;60583;50.094;8.748;2024-01-15T00:11:31;99215.00;;;-2.29;92.55
72558;BME280;60583;50.094;8.748;2024-01-15T00:14:15;99209.91;;;-2.31;92.31
72558;BME280;60583;50.094;8.748;2024-01-15T00:17:03;99235.78;;;-2.10;93.38
72558;BME280;60583;50.094;8.748;2024-01-15T00:19:47;99215.53;;;-2.26;93.05
72558;BME280;60583;50.094;8.748;2024-01-15T00:22:31;99230.22;;;-2.25;94.35
72558;BME280;60583;50.094;8.748;2024-01-15T00:25:15;99199.53;;;-2.40;93.85
72558;BME280;60583;50.094;8.748;2024-01-15T00:27:59;99185.56;;;-2.49;94.04
72558;BME280;60583;50.094;8.748;2024-01-15T00:30:43;99215.28;;;-2.32;94.29
72558;BME280;60583;50.094;8.748;2024-01-15T00:33:27;99225.38;;;-2.20;95.57
72558;BME280;60583;50.094;8.748;2024-01-15T00:36:11;99224.56;;;-2.20;95.00
72558;BME280;60583;50.094;8.748;2024-01-15T00:38:55;99233.06;;;-2.18;94.43
72558;BME280;60583;50.094;8.748;2024-01-15T00:41:39;99199.34;;;-2.29;94.67
72558;BME280;60583;50.094;8.748;2024-01-15T00:44:23;99218.75;;;-2.41;95.22
72558;BME280;60583;50.094;8.748;2024-01-15T00:47:07;99224.03;;;-2.24;94.99
72558;BME280;60583;50.094;8.748;2024-01-15T00:49:51;99191.03;;;-2.42;94.73
72558;BME280;60583;50.094;8.748;2024-01-15T00:52:35;99213.34;;;-2.30;95.40
72558;BME280;60583;50.094;8.748;2024-01-15T00:55:19;99193.38;;;-2.39;94.79
72558;BME280;60583;50.094;8.748;2024-01-15T00:58:03;99183.34;;;-2.44;95.21
72558;BME280;60583;50.094;8.748;2024-01-15T01:00:47;99169.19;;;-2.69;95.42
72558;BME280;60583;50.094;8.748;2024-01-15T01:03:31;99190.66;;;-2.47;96.18
72558;BME280;60583;50.094;8.748;2024-01-15T01:06:16;99189.88;;;-2.58;96.61
72558;BME280;60583;50.094;8.748;2024-01-15T01:09:00;99221.63;;;-2.35;96.15
72558;BME280;60583;50.094;8.748;2024-01-15T01:11:44;99198.78;;;-2.50;96.28
72558;BME280;60583;50.094;8.748;2024-01-15T01:14:28;99146.50;;;-2.86;97.05
72558;BME280;60583;50.094;8.748;2024-01-15T01:17:12;99158.78;;;-2.69;96.90
72558;BME280;60583;50.094;8.748;2024-01-15T01:19:56;99173.41;;;-2.58;97.13
72558;BME280;60583;50.094;8.748;2024-01-15T01:22:40;99204.69;;;-2.31;96.16
72558;BME280;60583;50.094;8.748;2024-01-15T01:25:24;99152.75;;;-2.51;96.52
72558;BME280;60583;50.094;8.748;2024-01-15T01:28:08;99213.22;;;-2.11;96.16
72558;BME280;60583;50.094;8.748;2024-01-15T01:30:53;99189.31;;;-2.34;95.73
72558;BME280;60583;50.094;8.748;2024-01-15T01:33:38;99203.09;;;-2.14;96.23
72558;BME280;60583;50.094;8.748;2024-01-15T01:36:24;99209.47;;;-2.26;96.76
72558;BME280;60583;50.094;8.748;2024-01-15T01:39:08;99217.75;;;-2.31;96.17
72558;BME280;60583;50.094;8.748;2024-01-15T01:41:52;99204.84;;;-2.32;95.79
72558;BME280;60583;50.094;8.748;2024-01-15T01:44:36;99193.06;;;-2.36;96.51
72558;BME280;60583;50.094;8.748;2024-01-15T01:47:20;99192.63;;;-2.32;96.29
72558;BME280;60583;50.094;8.748;2024-01-15T01:50:04;99157.19;;;-2.52;95.84
72558;BME280;60583;50.094;8.748;2024-01-15T01:52:48;99168.97;;;-2.48;95.89
72558;BME280;60583;50.094;8.748;2024-01-15T01:55:34;99158.91;;;-2.43;95.82
72558;BME280;60583;50.094;8.748;2024-01-15T01:58:19;99143.81;;;-2.49;95.94
72558;BME280;60583;50.094;8.748;2024-01-15T02:01:03;99144.13;;;-2.52;95.50
72558;BME280;60583;50.094;8.748;2024-01-15T02:03:48;99166.16;;;-2.37;93.94
72558;BME280;60583;50.094;8.748;2024-01-15T02:06:33;99172.56;;;-2.31;94.15
72558;BME280;60583;50.094;8.748;2024-01-15T02:09:29;99185.78;;;-2.15;94.09
72558;BME280;60583;50.094;8.748;2024-01-15T02:12:13;99143.19;;;-2.33;93.87
72558;BME280;60583;50.094;8.748;2024-01-15T02:14:57;99159.09;;;-2.27;93.38
72558;BME280;60583;50.094;8.748;2024-01-15T02:17:58;99195.13;;;-1.95;93.09
72558;BME280;60583;50.094;8.748;2024-01-15T02:20:42;99164.38;;;-2.19;93.62
72558;BME280;60583;50.094;8.748;2024-01-15T02:23:27;99178.50;;;-2.12;93.35
72558;BME280;60583;50.094;8.748;2024-01-15T02:26:12;99168.34;;;-1.97;93.35
72558;BME280;60583;50.094;8.748;2024-01-15T02:28:56;99158.34;;;-2.02;92.68
72558;BME280;60583;50.094;8.748;2024-01-15T02:31:40;99172.81;;;-2.07;92.43
72558;BME280;60583;50.094;8.748;2024-01-15T02:34:24;99151.94;;;-2.07;93.09
72558;BME280;60583;50.094;8.748;2024-01-15T02:37:08;99139.63;;;-2.15;92.31
72558;BME280;60583;50.094;8.748;2024-01-15T02:39:52;99126.13;;;-2.10;92.25
72558;BME280;60583;50.094;8.748;2024-01-15T02:42:36;99160.63;;;-1.99;92.28
72558;BME280;60583;50.094;8.748;2024-01-15T02:45:21;99163.78;;;-1.95;92.04
72558;BME280;60583;50.094;8.748;2024-01-15T02:48:06;99151.94;;;-1.89;91.82
72558;BME280;60583;50.094;8.748;2024-01-15T02:50:50;99166.97;;;-1.83;91.76
72558;BME280;60583;50.094;8.748;2024-01-15T02:53:35;99159.97;;;-1.83;91.23
72558;BME280;60583;50.094;8.748;2024-01-15T02:56:19;99163.88;;;-1.87;91.40
72558;BME280;60583;50.094;8.748;2024-01-15T02:59:03;99171.16;;;-1.73;91.40
72558;BME280;60583;50.094;8.748;2024-01-15T03:01:48;99148.13;;;-1.95;92.17
72558;BME280;60583;50.094;8.748;2024-01-15T03:04:31;99144.56;;;-1.94;91.97
72558;BME280;60583;50.094;8.748;2024-01-15T03:07:15;99147.38;;;-1.87;92.93
72558;BME280;60583;50.094;8.748;2024-01-15T03:10:00;99174.16;;;-1.85;93.32
72558;BME280;60583;50.094;8.748;2024-01-15T03:12:44;99149.69;;;-2.02;94.92
72558;BME280;60583;50.094;8.748;2024-01-15T03:15:28;99148.78;;;-1.93;94.88
72558;BME280;60583;50.094;8.748;2024-01-15T03:18:11;99173.31;;;-1.86;95.16
72558;BME280;60583;50.094;8.748;2024-01-15T03:20:55;99183.19;;;-1.80;95.93
72558;BME280;60583;50.094;8.748;2024-01-15T03:23:39;99171.31;;;-1.92;96.73
72558;BME280;60583;50.094;8.748;2024-01-15T03:26:24;99129.09;;;-2.23;97.45
72558;BME280;60583;50.094;8.748;2024-01-15T03:29:08;99165.66;;;-2.05;97.18
72558;BME280;60583;50.094;8.748;2024-01-15T03:31:52;99151.84;;;-2.15;97.86
72558;BME280;60583;50.094;8.748;2024-01-15T03:34:36;99158.72;;;-1.97;96.70
72558;BME280;60583;50.094;8.748;2024-01-15T03:37:20;99197.06;;;-1.79;96.98
72558;BME280;60583;50.094;8.748;2024-01-15T03:40:04;99163.19;;;-1.89;96.31
72558;BME280;60583;50.094;8.748;2024-01-15T03:42:48;99177.75;;;-1.86;96.55
72558;BME280;60583;50.094;8.748;2024-01-15T03:45:32;99157.53;;;-2.02;96.88
72558;BME280;60583;50.094;8.748;2024-01-15T03:48:16;99154.00;;;-1.93;95.64
72558;BME280;60583;50.094;8.748;2024-01-15T03:51:01;99141.03;;;-1.85;96.47
72558;BME280;60583;50.094;8.748;2024-01-15T03:53:44;99169.28;;;-1.80;96.35
72558;BME280;60583;50.094;8.748;2024-01-15T03:56:28;99130.75;;;-2.04;97.03
72558;BME280;60583;50.094;8.748;2024-01-15T03:59:14;99155.88;;;-1.85;96.38
72558;BME280;60583;50.094;8.748;2024-01-15T04:01:58;99091.66;;;-2.31;96.59
72558;BME280;60583;50.094;8.748;2024-01-15T04:04:42;99092.47;;;-2.31;97.35
72558;BME280;60583;50.094;8.748;2024-01-15T04:07:26;99165.44;;;-1.76;96.67
72558;BME280;60583;50.094;8.748;2024-01-15T04:10:10;99140.50;;;-1.88;97.06
72558;BME280;60583;50.094;8.748;2024-01-15T04:12:54;99164.81;;;-1.70;97.19
72558;BME280;60583;50.094;8.748;2024-01-15T04:15:38;99163.97;;;-1.71;97.46
72558;BME280;60583;50.094;8.748;2024-01-15T04:18:22;99122.75;;;-1.85;96.96
72558;BME280;60583;50.094;8.748;2024-01-15T04:21:06;99124.63;;;-1.95;95.84
72558;BME280;60583;50.094;8.748;2024-01-15T04:23:50;99112.03;;;-2.00;95.59
72558;BME280;60583;50.094;8.748;2024-01-15T04:26:34;99132.38;;;-1.85;95.95
72558;BME280;60583;50.094;8.748;2024-01-15T04:29:18;99111.63;;;-1.87;96.40
72558;BME280;60583;50.094;8.748;2024-01-15T04:32:02;99123.63;;;-1.76;96.59
72558;BME280;60583;50.094;8.748;2024-01-15T04:34:46;99115.19;;;-1.88;95.94
72558;BME280;60583;50.094;8.748;2024-01-15T04:37:30;99113.19;;;-1.76;96.17
72558;BME280;60583;50.094;8.748;2024-01-15T04:40:14;99127.41;;;-1.71;95.54
72558;BME280;60583;50.094;8.748;2024-01-15T04:42:58;99139.13;;;-1.57;94.89
72558;BME280;60583;50.094;8.748;2024-01-15T04:45:42;99146.06;;;-1.66;95.26
72558;BME280;60583;50.094;8.748;2024-01-15T04:48:26;99137.09;;;-1.63;95.34
72558;BME280;60583;50.094;8.748;2024-01-15T04:51:10;99127.75;;;-1.74;95.13
72558;BME280;60583;50.094;8.748;2024-01-15T04:53:54;99131.84;;;-1.71;94.99
72558;BME280;60583;50.094;8.748;2024-01-15T04:56:38;99123.84;;;-1.70;95.10
72558;BME280;60583;50.094;8.748;2024-01-15T04:59:22;99113.69;;;-1.73;94.66
72558;BME280;60583;50.094;8.748;2024-01-15T05:02:06;99132.16;;;-1.49;94.31
72558;BME280;60583;50.094;8.748;2024-01-15T05:04:50;99131.28;;;-1.57;94.11
72558;BME280;60583;50.094;8.748;2024-01-15T05:07:34;99102.41;;;-1.73;93.81
72558;BME280;60583;50.094;8.748;2024-01-15T05:10:18;99100.53;;;-1.63;94.49
72558;BME280;60583;50.094;8.748;2024-01-15T05:13:03;99107.47;;;-1.54;94.31
72558;BME280;60583;50.094;8.748;2024-01-15T05:15:47;99078.47;;;-1.69;94.27
72558;BME280;60583;50.094;8.748;2024-01-15T05:18:31;99086.31;;;-1.69;94.40
72558;BME280;60583;50.094;8.748;2024-01-15T05:21:15;99100.28;;;-1.52;94.54
72558;BME280;60583;50.094;8.748;2024-01-15T05:23:59;99099.25;;;-1.59;94.01
72558;BME280;60583;50.094;8.748;2024-01-15T05:26:43;99090.75;;;-1.61;94.51
72558;BME280;60583;50.094;8.748;2024-01-15T05:29:27;99056.22;;;-1.73;94.56
72558;BME280;60583;50.094;8.748;2024-01-15T05:32:11;99091.66;;;-1.45;93.59
72558;BME280;60583;50.094;8.748;2024-01-15T05:34:55;99078.66;;;-1.62;94.07
72558;BME280;60583;50.094;8.748;2024-01-15T05:37:44;99090.66;;;-1.52;94.13
72558;BME280;60583;50.094;8.748;2024-01-15T05:40:28;99084.06;;;-1.56;94.73
72558;BME280;60583;50.094;8.748;2024-01-15T05:43:12;99094.22;;;-1.53;94.00
72558;BME280;60583;50.094;8.748;2024-01-15T05:45:56;99094.03;;;-1.34;93.69
72558;BME280;60583;50.094;8.748;2024-01-15T05:48:40;99107.53;;;-1.12;93.70
72558;BME280;60583;50.094;8.748;2024-01-15T05:51:24;99072.09;;;-1.41;93.48
72558;BME280;60583;50.094;8.748;2024-01-15T05:54:08;99050.81;;;-1.54;93.64
72558;BME280;60583;50.094;8.748;2024-01-15T05:56:53;99087.28;;;-1.44;94.07
72558;BME280;60583;50.094;8.748;2024-01-15T05:59:36;99104.16;;;-1.31;94.20
72558;BME280;60583;50.094;8.748;2024-01-15T06:02:20;99055.84;;;-1.52;94.12
72558;BME280;60583;50.094;8.748;2024-01-15T06:05:05;99096.38;;;-1.22;93.42
72558;BME280;60583;50.094;8.748;2024-01-15T06:07:50;99053.44;;;-1.46;94.03
72558;BME280;60583;50.094;8.748;2024-01-15T06:10:33;99070.47;;;-1.42;94.07
72558;BME280;60583;50.094;8.748;2024-01-15T06:13:17;99103.03;;;-1.28;94.42
72558;BME280;60583;50.094;8.748;2024-01-15T06:16:01;99088.03;;;-1.26;94.46
72558;BME280;60583;50.094;8.748;2024-01-15T06:18:45;99100.94;;;-1.24;94.78
72558;BME280;60583;50.094;8.748;2024-01-15T06:21:29;99097.81;;;-1.28;94.58
72558;BME280;60583;50.094;8.748;2024-01-15T06:24:13;99081.94;;;-1.35;94.89
72558;BME280;60583;50.094;8.748;2024-01-15T06:26:57;99114.34;;;-1.19;95.29
72558;BME280;60583;50.094;8.748;2024-01-15T06:29:45;99083.06;;;-1.37;95.88
72558;BME280;60583;50.094;8.748;2024-01-15T06:32:32;99120.25;;;-1.17;96.18
72558;BME280;60583;50.094;8.748;2024-01-15T06:35:16;99090.03;;;-1.46;96.78
72558;BME280;60583;50.094;8.748;2024-01-15T06:38:00;99113.81;;;-1.31;96.35
72558;BME280;60583;50.094;8.748;2024-01-15T06:40:44;99088.09;;;-1.44;96.75
72558;BME280;60583;50.094;8.748;2024-01-15T06:43:29;99091.84;;;-1.38;96.42
72558;BME280;60583;50.094;8.748;2024-01-15T06:46:13;99114.84;;;-1.24;97.06
72558;BME280;60583;50.094;8.748;2024-01-15T06:48:57;99091.06;;;-1.39;97.80
72558;BME280;60583;50.094;8.748;2024-01-15T06:51:41;99109.78;;;-1.17;97.27
72558;BME280;60583;50.094;8.748;2024-01-15T06:54:25;99122.25;;;-1.11;97.92
72558;BME280;60583;50.094;8.748;2024-01-15T06:57:09;99085.19;;;-1.33;97.88
72558;BME280;60583;50.094;8.748;2024-01-15T06:59:53;99081.56;;;-1.40;98.62
72558;BME280;60583;50.094;8.748;2024-01-15T07:02:37;99102.84;;;-1.35;98.20
72558;BME280;60583;50.094;8.748;2024-01-15T07:05:21;99080.25;;;-1.44;98.47
72558;BME280;60583;50.094;8.748;2024-01-15T07:08:05;99088.91;;;-1.43;98.88
72558;BME280;60583;50.094;8.748;2024-01-15T07:10:49;99064.81;;;-1.55;98.67
72558;BME280;60583;50.094;8.748;2024-01-15T07:13:33;99107.84;;;-1.15;97.55
72558;BME280;60583;50.094;8.748;2024-01-15T07:16:17;99085.19;;;-1.33;97.76
72558;BME280;60583;50.094;8.748;2024-01-15T07:19:01;99067.50;;;-1.47;97.50
72558;BME280;60583;50.094;8.748;2024-01-15T07:21:44;99040.25;;;-1.70;98.61
72558;BME280;60583;50.094;8.748;2024-01-15T07:24:28;99079.25;;;-1.43;97.87
72558;BME280;60583;50.094;8.748;2024-01-15T07:27:12;99078.97;;;-1.40;97.07
72558;BME280;60583;50.094;8.748;2024-01-15T07:29:57;99083.84;;;-1.45;98.12
72558;BME280;60583;50.094;8.748;2024-01-15T07:32:41;99080.91;;;-1.42;97.34
72558;BME280;60583;50.094;8.748;2024-01-15T07:35:25;99083.25;;;-1.31;96.83
72558;BME280;60583;50.094;8.748;2024-01-15T07:38:08;99112.28;;;-1.16;96.73
72558;BME280;60583;50.094;8.748;2024-01-15T07:40:54;99115.03;;;-1.17;96.73
72558;BME280;60583;50.094;8.748;2024-01-15T07:43:39;99089.59;;;-1.33;96.30
72558;BME280;60583;50.094;8.748;2024-01-15T07:46:23;99109.75;;;-1.25;96.38
72558;BME280;60583;50.094;8.748;2024-01-15T07:49:08;99090.31;;;-1.23;96.89
72558;BME280;60583;50.094;8.748;2024-01-15T07:51:52;99112.63;;;-1.11;97.10
72558;BME280;60583;50.094;8.748;2024-01-15T07:54:36;99083.50;;;-1.16;96.81
72558;BME280;60583;50.094;8.748;2024-01-15T07:57:20;99079.25;;;-1.17;96.65
72558;BME280;60583;50.094;8.748;2024-01-15T08:00:04;99089.91;;;-1.02;96.03
72558;BME280;60583;50.094;8.748;2024-01-15T08:02:49;99068.78;;;-1.17;97.14
72558;BME280;60583;50.094;8.748;2024-01-15T08:05:33;99055.88;;;-1.18;97.02
72558;BME280;60583;50.094;8.748;2024-01-15T08:08:16;99042.31;;;-1.14;97.20
72558;BME280;60583;50.094;8.748;2024-01-15T08:11:00;99066.38;;;-1.02;98.49
72558;BME280;60583;50.094;8.748;2024-01-15T08:13:44;99074.13;;;-0.85;98.30
72558;BME280;60583;50.094;8.748;2024-01-15T08:16:28;99025.97;;;-1.16;99.00
72558;BME280;60583;50.094;8.748;2024-01-15T08:19:13;99049.56;;;-1.00;98.96
72558;BME280;60583;50.094;8.748;2024-01-15T08:21:58;99029.59;;;-1.09;98.28
72558;BME280;60583;50.094;8.748;2024-01-15T08:24:41;99041.13;;;-0.86;97.77
72558;BME280;60583;50.094;8.748;2024-01-15T08:27:25;99071.06;;;-0.72;96.59
72558;BME280;60583;50.094;8.748;2024-01-15T08:30:10;99054.38;;;-0.79;97.43
72558;BME280;60583;50.094;8.748;2024-01-15T08:32:54;99078.13;;;-0.65;96.55
72558;BME280;60583;50.094;8.748;2024-01-15T08:35:39;99085.34;;;-0.58;96.07
72558;BME280;60583;50.094;8.748;2024-01-15T08:38:22;99066.81;;;-0.73;95.32
72558;BME280;60583;50.094;8.748;2024-01-15T08:41:06;99039.00;;;-0.74;95.08
72558;BME280;60583;50.094;8.748;2024-01-15T08:43:52;99053.25;;;-0.69;95.61
72558;BME280;60583;50.094;8.748;2024-01-15T08:46:38;99050.97;;;-0.63;95.07
72558;BME280;60583;50.094;8.748;2024-01-15T08:49:22;99066.38;;;-0.60;94.84
72558;BME280;60583;50.094;8.748;2024-01-15T08:52:06;99068.53;;;-0.48;94.09
72558;BME280;60583;50.094;8.748;2024-01-15T08:54:51;99052.13;;;-0.66;94.01
72558;BME280;60583;50.094;8.748;2024-01-15T08:57:35;99063.63;;;-0.43;93.55
72558;BME280;60583;50.094;8.748;2024-01-15T09:00:18;99053.28;;;-0.52;93.23
72558;BME280;60583;50.094;8.748;2024-01-15T09:03:03;99072.44;;;-0.44;93.73
72558;BME280;60583;50.094;8.748;2024-01-15T09:05:47;99058.34;;;-0.59;93.26
72558;BME280;60583;50.094;8.748;2024-01-15T09:08:32;99056.06;;;-0.54;93.69
72558;BME280;60583;50.094;8.748;2024-01-15T09:11:16;99042.34;;;-0.48;92.33
72558;BME280;60583;50.094;8.748;2024-01-15T09:14:00;99052.78;;;-0.56;92.27
72558;BME280;60583;50.094;8.748;2024-01-15T09:16:44;99052.13;;;-0.50;92.42
72558;BME280;60583;50.094;8.748;2024-01-15T09:19:29;99075.03;;;-0.52;92.61
72558;BME280;60583;50.094;8.748;2024-01-15T09:22:13;99047.56;;;-0.56;92.41
72558;BME280;60583;50.094;8.748;2024-01-15T09:24:58;99060.66;;;-0.48;91.94
72558;BME280;60583;50.094;8.748;2024-01-15T09:27:42;99059.00;;;-0.49;92.41
72558;BME280;60583;50.094;8.748;2024-01-15T09:30:26;99038.09;;;-0.33;91.37
72558;BME280;60583;50.094;8.748;2024-01-15T09:33:10;99031.53;;;0.20;89.68
72558;BME280;60583;50.094;8.748;2024-01-15T09:35:54;99041.22;;;0.74;87.09
72558;BME280;60583;50.094;8.748;2024-01-15T09:38:40;99030.00;;;0.88;85.28
72558;BME280;60583;50.094;8.748;2024-01-15T09:41:25;99059.44;;;1.06;84.92
72558;BME280;60583;50.094;8.748;2024-01-15T09:44:10;99035.66;;;1.08;84.68
72558;BME280;60583;50.094;8.748;2024-01-15T09:46:55;99028.75;;;1.15;83.61
72558;BME280;60583;50.094;8.748;2024-01-15T09:49:39;99031.31;;;0.92;83.96
72558;BME280;60583;50.094;8.748;2024-01-15T09:52:25;99059.97;;;1.33;83.32
72558;BME280;60583;50.094;8.748;2024-01-15T09:55:09;99046.25;;;1.76;81.24
72558;BME280;60583;50.094;8.748;2024-01-15T09:57:53;99019.34;;;2.26;78.53
72558;BME280;60583;50.094;8.748;2024-01-15T10:00:40;99045.41;;;3.44;75.05
72558;BME280;60583;50.094;8.748;2024-01-15T10:03:27;99041.97;;;4.07;71.76
72558;BME280;60583;50.094;8.748;2024-01-15T10:06:11;99033.91;;;4.71;68.97
72558;BME280;60583;50.094;8.748;2024-01-15T10:08:59;99025.78;;;4.38;69.20
72558;BME280;60583;50.094;8.748;2024-01-15T10:11:44;99006.75;;;3.30;72.54
72558;BME280;60583;50.094;8.748;2024-01-15T10:14:29;99012.66;;;2.96;74.26
72558;BME280;60583;50.094;8.748;2024-01-15T10:17:14;99018.19;;;2.43;76.26
72558;BME280;60583;50.094;8.748;2024-01-15T10:20:01;99017.09;;;2.37;77.18
72558;BME280;60583;50.094;8.748;2024-01-15T10:22:45;99036.31;;;2.23;78.27
72558;BME280;60583;50.094;8.748;2024-01-15T10:25:30;99031.97;;;1.93;79.05
72558;BME280;60583;50.094;8.748;2024-01-15T10:28:14;99013.53;;;1.78;79.39
72558;BME280;60583;50.094;8.748;2024-01-15T10:31:00;99026.25;;;1.89;80.20
72558;BME280;60583;50.094;8.748;2024-01-15T10:33:44;99013.56;;;1.56;80.37
72558;BME280;60583;50.094;8.748;2024-01-15T10:36:29;98990.41;;;1.28;81.23
72558;BME280;60583;50.094;8.748;2024-01-15T10:39:13;99030.94;;;1.57;81.34
72558;BME280;60583;50.094;8.748;2024-01-15T10:41:58;99043.81;;;1.44;81.76
72558;BME280;60583;50.094;8.748;2024-01-15T10:44:42;99007.81;;;1.29;82.16
72558;BME280;60583;50.094;8.748;2024-01-15T10:47:27;99007.84;;;1.21;82.25
72558;BME280;60583;50.094;8.748;2024-01-15T10:50:12;98992.88;;;1.30;81.89
72558;BME280;60583;50.094;8.748;2024-01-15T10:52:56;98985.53;;;1.25;82.81
72558;BME280;60583;50.094;8.748;2024-01-15T10:55:42;98996.09;;;1.40;82.40
72558;BME280;60583;50.094;8.748;2024-01-15T10:58:26;99015.00;;;1.58;81.73
72558;BME280;60583;50.094;8.748;2024-01-15T11:01:13;98993.59;;;1.84;80.58
72558;BME280;60583;50.094;8.748;2024-01-15T11:03:57;98974.00;;;3.18;75.23
72558;BME280;60583;50.094;8.748;2024-01-15T11:06:44;98977.34;;;4.18;70.74
72558;BME280;60583;50.094;8.748;2024-01-15T11:09:28;98929.25;;;5.24;66.26
72558;BME280;60583;50.094;8.748;2024-01-15T11:12:13;98985.00;;;6.73;61.86
72558;BME280;60583;50.094;8.748;2024-01-15T11:15:03;98960.78;;;7.14;59.17
72558;BME280;60583;50.094;8.748;2024-01-15T11:18:01;98963.41;;;7.51;57.65
72558;BME280;60583;50.094;8.748;2024-01-15T11:24:00;98949.50;;;8.73;54.34
72558;BME280;60583;50.094;8.748;2024-01-15T11:26:45;98965.47;;;7.49;57.43
72558;BME280;60583;50.094;8.748;2024-01-15T11:29:34;98965.13;;;7.39;57.84
72558;BME280;60583;50.094;8.748;2024-01-15T11:32:33;98976.78;;;6.94;58.53
72558;BME280;60583;50.094;8.748;2024-01-15T11:35:17;98931.09;;;6.34;59.45
72558;BME280;60583;50.094;8.748;2024-01-15T11:38:02;98940.03;;;5.15;63.04
72558;BME280;60583;50.094;8.748;2024-01-15T11:40:46;98931.19;;;4.35;66.70
72558;BME280;60583;50.094;8.748;2024-01-15T11:43:32;98867.28;;;5.26;62.67
72558;BME280;60583;50.094;8.748;2024-01-15T11:46:17;98926.47;;;6.81;59.34
72558;BME280;60583;50.094;8.748;2024-01-15T11:49:03;98936.66;;;6.07;61.35
72558;BME280;60583;50.094;8.748;2024-01-15T11:51:50;98930.47;;;5.21;64.42
72558;BME280;60583;50.094;8.748;2024-01-15T11:54:38;98956.66;;;4.56;67.01
72558;BME280;60583;50.094;8.748;2024-01-15T11:57:34;98947.88;;;4.14;68.87
72558;BME280;60583;50.094;8.748;2024-01-15T12:00:21;98950.13;;;3.62;70.80
72558;BME280;60583;50.094;8.748;2024-01-15T12:03:06;98993.19;;;3.33;72.21
72558;BME280;60583;50.094;8.748;2024-01-15T12:05:52;98976.88;;;3.02;73.56
72558;BME280;60583;50.094;8.748;2024-01-15T12:08:36;98951.06;;;2.62;75.18
72558;BME280;60583;50.094;8.748;2024-01-15T12:11:22;98951.25;;;2.45;75.98
72558;BME280;60583;50.094;8.748;2024-01-15T12:14:08;98961.41;;;2.63;76.25
72558;BME280;60583;50.094;8.748;2024-01-15T12:16:52;98977.22;;;2.48;75.87
72558;BME280;60583;50.094;8.748;2024-01-15T12:19:37;98950.72;;;2.21;77.27
72558;BME280;60583;50.094;8.748;2024-01-15T12:22:21;98965.69;;;2.20;78.17
72558;BME280;60583;50.094;8.748;2024-01-15T12:25:05;98964.78;;;2.13;78.70
72558;BME280;60583;50.094;8.748;2024-01-15T12:27:50;98935.81;;;1.84;78.73
72558;BME280;60583;50.094;8.748;2024-01-15T12:30:35;98954.06;;;2.00;79.49
72558;BME280;60583;50.094;8.748;2024-01-15T12:33:19;98934.81;;;1.85;79.83
72558;BME280;60583;50.094;8.748;2024-01-15T12:36:04;98951.63;;;1.99;80.09
72558;BME280;60583;50.094;8.748;2024-01-15T12:38:49;98945.41;;;1.91;81.06
72558;BME280;60583;50.094;8.748;2024-01-15T12:41:33;98943.44;;;1.93;80.63
72558;BME280;60583;50.094;8.748;2024-01-15T12:44:17;98931.75;;;1.96;81.27
72558;BME280;60583;50.094;8.748;2024-01-15T12:47:01;98952.41;;;1.99;81.47
72558;BME280;60583;50.094;8.748;2024-01-15T12:49:48;98896.72;;;1.66;81.61
72558;BME280;60583;50.094;8.748;2024-01-15T12:52:40;98958.13;;;2.17;81.17
72558;BME280;60583;50.094;8.748;2024-01-15T12:55:24;98966.03;;;2.17;81.74
72558;BME280;60583;50.094;8.748;2024-01-15T12:58:08;98972.31;;;2.31;81.54
72558;BME280;60583;50.094;8.748;2024-01-15T13:00:52;98959.16;;;2.31;80.55
72558;BME280;60583;50.094;8.748;2024-01-15T13:03:36;98940.00;;;2.22;79.96
72558;BME280;60583;50.094;8.748;2024-01-15T13:06:20;98942.28;;;2.25;79.53
72558;BME280;60583;50.094;8.748;2024-01-15T13:09:05;98958.16;;;2.32;79.54
72558;BME280;60583;50.094;8.748;2024-01-15T13:11:49;98984.75;;;2.51;79.19
72558;BME280;60583;50.094;8.748;2024-01-15T13:14:33;98954.34;;;2.34;78.13
72558;BME280;60583;50.094;8.748;2024-01-15T13:17:17;98969.66;;;2.45;78.79
72558;BME280;60583;50.094;8.748;2024-01-15T13:20:01;98959.88;;;2.54;77.83
72558;BME280;60583;50.094;8.748;2024-01-15T13:22:46;98952.63;;;2.41;77.28
72558;BME280;60583;50.094;8.748;2024-01-15T13:25:30;98942.53;;;2.45;77.31
72558;BME280;60583;50.094;8.748;2024-01-15T13:28:14;98948.28;;;2.48;76.75
72558;BME280;60583;50.094;8.748;2024-01-15T13:30:58;98965.03;;;2.77;76.54
72558;BME280;60583;50.094;8.748;2024-01-15T13:33:42;98953.78;;;2.68;76.78
72558;BME280;60583;50.094;8.748;2024-01-15T13:36:26;98964.78;;;2.72;76.69
72558;BME280;60583;50.094;8.748;2024-01-15T13:39:11;98964.41;;;2.60;76.32
72558;BME280;60583;50.094;8.748;2024-01-15T13:41:55;98965.22;;;2.61;76.55
72558;BME280;60583;50.094;8.748;2024-01-15T13:44:39;98957.63;;;2.51;76.86
72558;BME280;60583;50.094;8.748;2024-01-15T13:47:23;98956.50;;;2.60;76.54
72558;BME280;60583;50.094;8.748;2024-01-15T13:50:08;98967.22;;;2.58;76.51
72558;BME280;60583;50.094;8.748;2024-01-15T13:52:52;98993.97;;;2.62;77.35
72558;BME280;60583;50.094;8.748;2024-01-15T13:55:36;98945.53;;;2.27;76.89
72558;BME280;60583;50.094;8.748;2024-01-15T13:58:20;98953.34;;;2.35;76.86
72558;BME280;60583;50.094;8.748;2024-01-15T14:01:05;98973.81;;;2.54;77.26
72558;BME280;60583;50.094;8.748;2024-01-15T14:03:49;98967.91;;;2.67;76.99
72558;BME280;60583;50.094;8.748;2024-01-15T14:06:33;98980.25;;;2.81;76.59
72558;BME280;60583;50.094;8.748;2024-01-15T14:09:17;99004.13;;;2.94;76.63
72558;BME280;60583;50.094;8.748;2024-01-15T14:12:01;98988.31;;;2.80;77.10
72558;BME280;60583;50.094;8.748;2024-01-15T14:14:46;98971.03;;;2.71;77.14
72558;BME280;60583;50.094;8.748;2024-01-15T14:17:31;98976.09;;;2.57;77.37
72558;BME280;60583;50.094;8.748;2024-01-15T14:20:16;98996.41;;;2.78;77.51
72558;BME280;60583;50.094;8.748;2024-01-15T14:23:01;98977.22;;;2.48;78.03
72558;BME280;60583;50.094;8.748;2024-01-15T14:25:45;99006.69;;;2.58;78.45
72558;BME280;60583;50.094;8.748;2024-01-15T14:28:29;99019.56;;;2.53;78.64
72558;BME280;60583;50.094;8.748;2024-01-15T14:31:13;99012.22;;;2.49;78.52
72558;BME280;60583;50.094;8.748;2024-01-15T14:33:56;98997.88;;;2.37;79.37
72558;BME280;60583;50.094;8.748;2024-01-15T14:36:42;99007.31;;;2.46;78.78
72558;BME280;60583;50.094;8.748;2024-01-15T14:39:26;99021.09;;;2.48;79.41